EZY74LJ LCPH-EGKK
Flight info
| Callsign | EZY74LJ |
|---|---|
| Flight time | N/A |
| Altitude | 34000 |
| Route | GENOS DCT TOSKA DCT VAXOS DCT RIPLI DCT SIGFO DCT BITLA DCT BONZI DCT RINAV DCT POD/N0450F360 DCT BARIT DCT UNIPA DCT PEVAL DCT BABAG DCT SUMIR DCT SAFFA DCT ELMUR DCT RIPUS DCT DITON DCT HOC DCT LUL DCT RLP DCT ROTSI DCT KOTUN DCT NINAL DCT KESAX DCT KUNAV |
| Aircraft | A320/M-SDE3FGHIRWY/LB1 |
Departure
| Time | N/A |
|---|---|
| Airport | Paphos International Airport (LCPH) |
Arrival
| Time | 2026-05-04 15:12 |
|---|---|
| Airport | London Gatwick Airport (EGKK) |
| Time | Latitude | Longitude | Altitude | Speed | Heading |
|---|---|---|---|---|---|
| 2026-05-04 14:36 | 49.41473 | 2.82668 | 33960 ft | 463 kts | 310° |
| 2026-05-04 14:37 | 49.43741 | 2.79156 | 33960 ft | 463 kts | 310° |
| 2026-05-04 14:37 | 49.48284 | 2.72110 | 33957 ft | 463 kts | 310° |
| 2026-05-04 14:38 | 49.52815 | 2.65064 | 33952 ft | 463 kts | 310° |
| 2026-05-04 14:38 | 49.57348 | 2.57999 | 33952 ft | 463 kts | 310° |
| 2026-05-04 14:39 | 49.61841 | 2.50882 | 33942 ft | 462 kts | 308° |
| 2026-05-04 14:39 | 49.65356 | 2.44685 | 33948 ft | 461 kts | 305° |
| 2026-05-04 14:40 | 49.71451 | 2.33214 | 33952 ft | 461 kts | 305° |
| 2026-05-04 14:40 | 49.75568 | 2.25600 | 33948 ft | 461 kts | 306° |
| 2026-05-04 14:41 | 49.79716 | 2.18041 | 33949 ft | 461 kts | 306° |
| 2026-05-04 14:42 | 49.87981 | 2.02901 | 33956 ft | 460 kts | 306° |
| 2026-05-04 14:42 | 49.92091 | 1.95304 | 33956 ft | 460 kts | 306° |
| 2026-05-04 14:43 | 49.92785 | 1.94018 | 33956 ft | 459 kts | 306° |
| 2026-05-04 14:43 | 49.96517 | 1.87138 | 33959 ft | 459 kts | 306° |
| 2026-05-04 14:44 | 50.00607 | 1.79518 | 33963 ft | 459 kts | 305° |
| 2026-05-04 14:44 | 50.02650 | 1.75695 | 33752 ft | 460 kts | 305° |
| 2026-05-04 14:44 | 50.04690 | 1.71870 | 33380 ft | 459 kts | 306° |
| 2026-05-04 14:45 | 50.06777 | 1.68057 | 32212 ft | 468 kts | 310° |
| 2026-05-04 14:45 | 50.09169 | 1.64593 | 31270 ft | 472 kts | 316° |
| 2026-05-04 14:45 | 50.11656 | 1.61252 | 30375 ft | 472 kts | 317° |
| 2026-05-04 14:45 | 50.14119 | 1.57917 | 29772 ft | 466 kts | 317° |
| 2026-05-04 14:46 | 50.16548 | 1.54617 | 29094 ft | 460 kts | 316° |
| 2026-05-04 14:46 | 50.18946 | 1.51355 | 28455 ft | 454 kts | 316° |
| 2026-05-04 14:46 | 50.21310 | 1.48123 | 27829 ft | 449 kts | 316° |
| 2026-05-04 14:46 | 50.23646 | 1.44930 | 27215 ft | 444 kts | 316° |
| 2026-05-04 14:47 | 50.25957 | 1.41772 | 26604 ft | 440 kts | 316° |
| 2026-05-04 14:47 | 50.27641 | 1.39470 | 26163 ft | 437 kts | 316° |
| 2026-05-04 14:47 | 50.28520 | 1.38271 | 25926 ft | 435 kts | 316° |
| 2026-05-04 14:47 | 50.30693 | 1.35355 | 25365 ft | 431 kts | 317° |
| 2026-05-04 14:48 | 50.32954 | 1.32274 | 24766 ft | 428 kts | 316° |
| 2026-05-04 14:48 | 50.35175 | 1.29200 | 24191 ft | 425 kts | 316° |
| 2026-05-04 14:48 | 50.37375 | 1.26143 | 23627 ft | 422 kts | 316° |
| 2026-05-04 14:48 | 50.39567 | 1.23103 | 23025 ft | 418 kts | 316° |
| 2026-05-04 14:49 | 50.41729 | 1.20109 | 22524 ft | 412 kts | 317° |
| 2026-05-04 14:49 | 50.43871 | 1.17151 | 22027 ft | 408 kts | 317° |
| 2026-05-04 14:49 | 50.45988 | 1.14227 | 21560 ft | 403 kts | 317° |
| 2026-05-04 14:49 | 50.48053 | 1.11365 | 21112 ft | 399 kts | 317° |
| 2026-05-04 14:50 | 50.50142 | 1.08455 | 20642 ft | 394 kts | 317° |
| 2026-05-04 14:50 | 50.52127 | 1.05512 | 20179 ft | 390 kts | 311° |
| 2026-05-04 14:50 | 50.53905 | 1.02501 | 19727 ft | 387 kts | 311° |
| 2026-05-04 14:50 | 50.55732 | 0.99415 | 19249 ft | 384 kts | 312° |
| 2026-05-04 14:51 | 50.57549 | 0.96355 | 18776 ft | 381 kts | 312° |
| 2026-05-04 14:51 | 50.59315 | 0.93385 | 18291 ft | 380 kts | 312° |
| 2026-05-04 14:51 | 50.61115 | 0.90356 | 17763 ft | 377 kts | 312° |
| 2026-05-04 14:51 | 50.62899 | 0.87346 | 17265 ft | 374 kts | 312° |
| 2026-05-04 14:52 | 50.64665 | 0.84352 | 16770 ft | 371 kts | 312° |
| 2026-05-04 14:52 | 50.66419 | 0.81377 | 16278 ft | 369 kts | 312° |
| 2026-05-04 14:52 | 50.68142 | 0.78398 | 15723 ft | 368 kts | 310° |
| 2026-05-04 14:52 | 50.69823 | 0.75274 | 14793 ft | 378 kts | 309° |
| 2026-05-04 14:53 | 50.71484 | 0.72004 | 14036 ft | 383 kts | 307° |
| 2026-05-04 14:53 | 50.73015 | 0.68911 | 13631 ft | 377 kts | 307° |
| 2026-05-04 14:53 | 50.74623 | 0.65659 | 13070 ft | 373 kts | 307° |
| 2026-05-04 14:53 | 50.76217 | 0.62460 | 12611 ft | 367 kts | 308° |
| 2026-05-04 14:54 | 50.77777 | 0.59358 | 12421 ft | 354 kts | 308° |
| 2026-05-04 14:54 | 50.79288 | 0.56368 | 12162 ft | 344 kts | 308° |
| 2026-05-04 14:54 | 50.80767 | 0.53457 | 11907 ft | 334 kts | 308° |
| 2026-05-04 14:54 | 50.82204 | 0.50634 | 11646 ft | 326 kts | 308° |
| 2026-05-04 14:55 | 50.83610 | 0.47871 | 11323 ft | 320 kts | 308° |
| 2026-05-04 14:55 | 50.84994 | 0.45145 | 11005 ft | 315 kts | 308° |
| 2026-05-04 14:55 | 50.86358 | 0.42453 | 10679 ft | 310 kts | 308° |
| 2026-05-04 14:55 | 50.87242 | 0.40707 | 10454 ft | 308 kts | 308° |
| 2026-05-04 14:56 | 50.88296 | 0.38606 | 10237 ft | 304 kts | 308° |
| 2026-05-04 14:56 | 50.89605 | 0.35999 | 9927 ft | 299 kts | 308° |
| 2026-05-04 14:56 | 50.90878 | 0.33470 | 9561 ft | 297 kts | 308° |
| 2026-05-04 14:57 | 50.92163 | 0.30920 | 9167 ft | 295 kts | 308° |
| 2026-05-04 14:57 | 50.93426 | 0.28416 | 8937 ft | 286 kts | 308° |
| 2026-05-04 14:57 | 50.94544 | 0.25971 | 8623 ft | 282 kts | 298° |
| 2026-05-04 14:57 | 50.95287 | 0.23117 | 8243 ft | 279 kts | 290° |
| 2026-05-04 14:58 | 50.95958 | 0.20234 | 7850 ft | 278 kts | 290° |
| 2026-05-04 14:58 | 50.96625 | 0.17370 | 7465 ft | 276 kts | 290° |
| 2026-05-04 14:58 | 50.97290 | 0.14520 | 7092 ft | 274 kts | 290° |
| 2026-05-04 14:58 | 50.97948 | 0.11700 | 6998 ft | 273 kts | 290° |
| 2026-05-04 14:59 | 50.98611 | 0.08862 | 7010 ft | 274 kts | 290° |
| 2026-05-04 14:59 | 50.99277 | 0.06018 | 7017 ft | 274 kts | 290° |
| 2026-05-04 14:59 | 51.00186 | 0.00145 | 7021 ft | 274 kts | 281° |
| 2026-05-04 15:00 | 51.00558 | -0.02816 | 7019 ft | 274 kts | 281° |
| 2026-05-04 15:00 | 51.00929 | -0.05793 | 7019 ft | 274 kts | 281° |
| 2026-05-04 15:00 | 51.01300 | -0.08761 | 7020 ft | 273 kts | 281° |
| 2026-05-04 15:01 | 51.02004 | -0.14466 | 6570 ft | 257 kts | 281° |
| 2026-05-04 15:01 | 51.02344 | -0.17222 | 6324 ft | 250 kts | 281° |
| 2026-05-04 15:01 | 51.02673 | -0.19902 | 6064 ft | 244 kts | 281° |
| 2026-05-04 15:01 | 51.02991 | -0.22524 | 5812 ft | 239 kts | 281° |
| 2026-05-04 15:02 | 51.03301 | -0.25107 | 5555 ft | 237 kts | 281° |
| 2026-05-04 15:02 | 51.03605 | -0.27672 | 5303 ft | 236 kts | 281° |
| 2026-05-04 15:02 | 51.03893 | -0.30126 | 5061 ft | 235 kts | 281° |
| 2026-05-04 15:02 | 51.04137 | -0.32213 | 4858 ft | 232 kts | 281° |
| 2026-05-04 15:03 | 51.04422 | -0.34680 | 4605 ft | 227 kts | 281° |
| 2026-05-04 15:03 | 51.04704 | -0.37133 | 4389 ft | 222 kts | 281° |
| 2026-05-04 15:03 | 51.04978 | -0.39513 | 4207 ft | 217 kts | 281° |
| 2026-05-04 15:03 | 51.05248 | -0.41859 | 4026 ft | 215 kts | 281° |
| 2026-05-04 15:04 | 51.05519 | -0.44202 | 3852 ft | 214 kts | 281° |
| 2026-05-04 15:04 | 51.05785 | -0.46518 | 3669 ft | 211 kts | 281° |
| 2026-05-04 15:04 | 51.06042 | -0.48764 | 3551 ft | 202 kts | 281° |
| 2026-05-04 15:04 | 51.06306 | -0.50878 | 3471 ft | 188 kts | 289° |
| 2026-05-04 15:05 | 51.06725 | -0.52032 | 3384 ft | 179 kts | 316° |
| 2026-05-04 15:05 | 51.07579 | -0.53147 | 3263 ft | 169 kts | 328° |
| 2026-05-04 15:06 | 51.08687 | -0.53604 | 3168 ft | 166 kts | 6° |
| 2026-05-04 15:06 | 51.09725 | -0.52921 | 3089 ft | 164 kts | 42° |
| 2026-05-04 15:06 | 51.10298 | -0.51380 | 3018 ft | 164 kts | 76° |
| 2026-05-04 15:07 | 51.10795 | -0.47820 | 3001 ft | 165 kts | 77° |
| 2026-05-04 15:07 | 51.11048 | -0.46026 | 3000 ft | 165 kts | 77° |
| 2026-05-04 15:07 | 51.11299 | -0.44243 | 3003 ft | 165 kts | 77° |
| 2026-05-04 15:07 | 51.11550 | -0.42452 | 2934 ft | 166 kts | 77° |
| 2026-05-04 15:08 | 51.11796 | -0.40704 | 2774 ft | 155 kts | 77° |
| 2026-05-04 15:08 | 51.12025 | -0.39071 | 2583 ft | 149 kts | 77° |
| 2026-05-04 15:08 | 51.12248 | -0.37479 | 2393 ft | 146 kts | 77° |
| 2026-05-04 15:08 | 51.12468 | -0.35902 | 2199 ft | 146 kts | 77° |
| 2026-05-04 15:09 | 51.12681 | -0.34382 | 2007 ft | 145 kts | 77° |
| 2026-05-04 15:09 | 51.12900 | -0.32815 | 1815 ft | 145 kts | 77° |
| 2026-05-04 15:09 | 51.13117 | -0.31254 | 1624 ft | 144 kts | 78° |
| 2026-05-04 15:10 | 51.13551 | -0.28143 | 1229 ft | 144 kts | 78° |
| 2026-05-04 15:10 | 51.13757 | -0.26653 | 1028 ft | 142 kts | 77° |
| 2026-05-04 15:10 | 51.14174 | -0.23652 | 634 ft | 140 kts | 76° |
| 2026-05-04 15:11 | 51.14383 | -0.22147 | 437 ft | 139 kts | 76° |
| 2026-05-04 15:11 | 51.14588 | -0.20669 | 256 ft | 137 kts | 76° |
| 2026-05-04 15:11 | 51.14777 | -0.19300 | 208 ft | 105 kts | 78° |
| 2026-05-04 15:11 | 51.14895 | -0.18439 | 208 ft | 56 kts | 78° |
| 2026-05-04 15:12 | 51.14965 | -0.17992 | 212 ft | 28 kts | 63° |
| 2026-05-04 15:12 | 51.15030 | -0.17854 | 210 ft | 12 kts | 52° |
| 2026-05-04 15:12 | 51.15059 | -0.17793 | 216 ft | 1 kts | 53° |
| 2026-05-04 15:12 | 51.15063 | -0.17783 | 207 ft | 1 kts | 54° |
| 2026-05-04 15:13 | 51.15071 | -0.17768 | 209 ft | 2 kts | 48° |
| 2026-05-04 15:13 | 51.15087 | -0.17758 | 206 ft | 3 kts | 11° |
| 2026-05-04 15:13 | 51.15112 | -0.17761 | 206 ft | 4 kts | 355° |
| 2026-05-04 15:13 | 51.15145 | -0.17766 | 205 ft | 5 kts | 355° |
| 2026-05-04 15:14 | 51.15183 | -0.17773 | 215 ft | 8 kts | 351° |
| 2026-05-04 15:14 | 51.15242 | -0.17777 | 205 ft | 8 kts | 18° |
| 2026-05-04 15:14 | 51.15269 | -0.17695 | 205 ft | 9 kts | 81° |
| 2026-05-04 15:14 | 51.15282 | -0.17590 | 205 ft | 10 kts | 78° |
| 2026-05-04 15:15 | 51.15297 | -0.17472 | 207 ft | 12 kts | 80° |
| 2026-05-04 15:15 | 51.15312 | -0.17378 | 209 ft | 8 kts | 56° |
| 2026-05-04 15:15 | 51.15375 | -0.17381 | 214 ft | 12 kts | 348° |
| 2026-05-04 15:16 | 51.15541 | -0.17457 | 209 ft | 8 kts | 303° |
| 2026-05-04 15:16 | 51.15536 | -0.17537 | 206 ft | 7 kts | 257° |
| 2026-05-04 15:16 | 51.15517 | -0.17669 | 215 ft | 5 kts | 257° |
| 2026-05-04 15:17 | 51.15509 | -0.17723 | 206 ft | 5 kts | 258° |
| 2026-05-04 15:17 | 51.15515 | -0.17802 | 205 ft | 3 kts | 326° |
| 2026-05-04 15:17 | 51.15532 | -0.17809 | 212 ft | 3 kts | 347° |
| 2026-05-04 15:18 | 51.15553 | -0.17816 | 210 ft | 3 kts | 348° |
| 2026-05-04 15:18 | 51.15566 | -0.17821 | 212 ft | 0 kts | 346° |